Time;durP1;ratioP1;P1;durP2;ratioP2;P2;SDS_P1;SDS_P2;PMS_P1;PMS_P2;Temp;Humidity;BMP_temperature;BMP_pressure;BME280_temperature;BME280_humidity;BME280_pressure;Samples;Min_cycle;Max_cycle;Signal;HPM_P1;HPM_P2
2022/06/02 00:02:12;;;;;;;2.87;0.80;;;13.90;85.50;;;;;;5003613;28;20468;-78
2022/06/02 00:05:02;;;;;;;1.60;0.53;;;13.90;85.40;;;;;;5012539;28;20441;-78
2022/06/02 00:07:46;;;;;;;1.63;0.80;;;13.90;85.90;;;;;;5005434;28;20909;-78
2022/06/02 00:10:49;;;;;;;2.53;0.80;;;13.90;85.70;;;;;;5007104;28;20429;-78
2022/06/02 00:13:26;;;;;;;2.27;0.60;;;13.80;85.50;;;;;;5000130;28;20894;-78
2022/06/02 00:16:00;;;;;;;1.67;0.87;;;13.80;85.80;;;;;;5014023;28;20401;-78
2022/06/02 00:18:32;;;;;;;1.60;0.70;;;13.70;86.10;;;;;;5002787;28;20775;-77
2022/06/02 00:21:25;;;;;;;3.43;0.90;;;13.70;85.90;;;;;;5000995;28;20473;-78
2022/06/02 00:24:27;;;;;;;4.10;0.90;;;13.70;85.60;;;;;;5006218;28;20411;-78
2022/06/02 00:27:01;;;;;;;1.50;0.90;;;13.60;85.80;;;;;;4994296;28;20426;-78
2022/06/02 00:29:46;;;;;;;1.80;0.97;;;13.60;86.60;;;;;;5008306;28;20429;-78
2022/06/02 00:32:32;;;;;;;1.77;0.80;;;13.50;86.40;;;;;;5013548;28;20489;-78
2022/06/02 00:35:42;;;;;;;2.30;0.83;;;13.50;86.30;;;;;;5008203;28;20423;-78
2022/06/02 00:38:29;;;;;;;2.37;0.90;;;13.50;86.50;;;;;;4965831;28;20440;-78
2022/06/02 00:41:04;;;;;;;2.10;0.87;;;13.50;86.70;;;;;;4954653;28;20889;-78
2022/06/02 00:43:30;;;;;;;4.90;0.70;;;13.50;87.30;;;;;;5001644;28;20426;-78
2022/06/02 00:46:19;;;;;;;1.97;0.60;;;13.50;86.50;;;;;;5009559;28;20843;-78
2022/06/02 00:48:59;;;;;;;3.33;0.80;;;13.40;86.50;;;;;;5010481;28;20428;-78
2022/06/02 00:52:02;;;;;;;9.50;0.97;;;13.40;87.20;;;;;;4997505;28;20489;-78
2022/06/02 00:57:35;;;;;;;2.33;0.80;;;13.30;87.30;;;;;;4993275;28;20374;-77
2022/06/02 01:00:20;;;;;;;2.33;0.80;;;13.30;87.90;;;;;;5011464;28;20430;-78
2022/06/02 01:02:52;;;;;;;1.90;0.67;;;13.30;88.90;;;;;;5013160;28;20417;-78
2022/06/02 01:05:49;;;;;;;1.50;0.60;;;13.20;88.80;;;;;;5012998;28;20828;-78
2022/06/02 01:08:48;;;;;;;1.97;0.73;;;13.20;87.90;;;;;;4992266;28;20473;-78
2022/06/02 01:11:26;;;;;;;1.73;0.67;;;13.20;87.80;;;;;;4996538;28;20465;-78
2022/06/02 01:14:21;;;;;;;2.80;0.90;;;13.20;88.00;;;;;;5013120;28;20418;-77
2022/06/02 01:17:10;;;;;;;2.23;0.83;;;13.20;87.50;;;;;;5009152;28;20403;-78
2022/06/02 01:19:50;;;;;;;1.83;0.80;;;13.20;87.80;;;;;;5006949;28;20429;-78
2022/06/02 01:22:46;;;;;;;2.13;0.90;;;13.20;88.00;;;;;;5001789;28;20426;-78
2022/06/02 01:25:57;;;;;;;2.07;0.70;;;13.10;88.00;;;;;;5009881;28;20450;-78
2022/06/02 01:29:03;;;;;;;1.83;0.80;;;13.00;88.20;;;;;;5011418;28;20449;-78
2022/06/02 01:31:42;;;;;;;2.07;1.00;;;13.10;88.00;;;;;;5000040;28;20951;-78
2022/06/02 01:34:56;;;;;;;1.77;0.80;;;13.10;88.60;;;;;;5004407;28;20422;-78
2022/06/02 01:37:36;;;;;;;1.40;0.67;;;13.10;88.50;;;;;;4969935;28;20514;-78
2022/06/02 01:40:14;;;;;;;1.60;0.70;;;13.10;89.20;;;;;;5006118;28;20480;-78
2022/06/02 01:43:04;;;;;;;4.00;0.90;;;13.10;89.60;;;;;;5004663;28;20437;-78
2022/06/02 01:46:23;;;;;;;3.60;0.90;;;13.10;87.80;;;;;;5012780;28;20418;-78
2022/06/02 01:48:56;;;;;;;1.50;0.63;;;13.10;88.60;;;;;;4951844;29;20448;-78
2022/06/02 01:51:27;;;;;;;2.70;0.83;;;13.20;87.60;;;;;;5004593;28;20595;-78
2022/06/02 01:54:05;;;;;;;6.70;1.03;;;13.20;88.30;;;;;;4998601;28;20457;-78
2022/06/02 01:56:31;;;;;;;1.50;0.67;;;13.20;88.30;;;;;;4998655;28;20563;-78
2022/06/02 01:59:06;;;;;;;3.93;1.00;;;13.20;87.80;;;;;;5001705;28;20422;-78
2022/06/02 02:02:03;;;;;;;4.13;1.00;;;13.20;88.40;;;;;;5011916;28;20213;-78
2022/06/02 02:04:34;;;;;;;1.50;0.70;;;13.20;89.00;;;;;;5004922;28;20449;-79
2022/06/02 02:07:17;;;;;;;1.83;0.70;;;13.20;89.50;;;;;;5004735;28;20446;-78
2022/06/02 02:09:43;;;;;;;5.40;1.17;;;13.10;87.50;;;;;;5006204;28;20422;-78
2022/06/02 02:12:38;;;;;;;1.30;0.50;;;13.10;88.00;;;;;;5001407;28;20462;-78
2022/06/02 02:15:12;;;;;;;4.30;0.93;;;13.10;87.90;;;;;;4991054;28;20195;-78
2022/06/02 02:17:54;;;;;;;2.00;1.10;;;13.10;89.20;;;;;;5002958;28;20449;-78
2022/06/02 02:20:29;;;;;;;2.90;0.70;;;13.00;90.00;;;;;;5005979;28;20440;-78
2022/06/02 02:22:59;;;;;;;1.80;0.77;;;13.00;88.60;;;;;;5004619;28;20504;-78
2022/06/02 02:25:53;;;;;;;1.97;1.13;;;12.90;88.80;;;;;;5005356;28;20459;-78
2022/06/02 02:28:27;;;;;;;1.87;0.70;;;12.90;87.50;;;;;;5005447;28;20419;-78
2022/06/02 02:31:17;;;;;;;1.73;0.70;;;12.90;88.40;;;;;;5003701;28;20493;-78
2022/06/02 02:33:51;;;;;;;1.40;0.60;;;12.80;89.00;;;;;;5008560;28;21092;-78
2022/06/02 02:36:25;;;;;;;2.73;0.83;;;12.70;88.50;;;;;;5000501;28;20421;-78
2022/06/02 02:39:11;;;;;;;7.33;1.20;;;12.80;87.90;;;;;;5005308;28;20437;-78
2022/06/02 02:41:42;;;;;;;6.50;0.90;;;12.70;87.90;;;;;;5005510;28;20416;-78
2022/06/02 02:45:04;;;;;;;1.87;0.80;;;12.70;88.20;;;;;;5011804;28;20779;-78
2022/06/02 02:47:37;;;;;;;3.60;0.70;;;12.70;88.30;;;;;;4967558;28;20442;-78
2022/06/02 02:50:08;;;;;;;1.83;0.80;;;12.60;88.70;;;;;;4957291;28;20609;-78
2022/06/02 02:52:54;;;;;;;1.87;0.80;;;12.70;88.50;;;;;;4992444;28;20592;-78
2022/06/02 02:55:33;;;;;;;2.23;0.90;;;12.60;90.30;;;;;;5008682;28;20902;-77
2022/06/02 02:58:40;;;;;;;1.40;0.70;;;12.40;90.20;;;;;;5002842;28;20414;-78
2022/06/02 03:01:34;;;;;;;1.90;0.67;;;12.30;90.50;;;;;;5010064;28;20441;-78
2022/06/02 03:04:18;;;;;;;2.83;0.97;;;12.30;90.50;;;;;;5000402;28;20484;-78
2022/06/02 03:06:45;;;;;;;1.30;0.70;;;12.20;90.90;;;;;;5004312;28;20423;-78
2022/06/02 03:09:25;;;;;;;1.40;0.70;;;12.10;91.00;;;;;;5002571;28;20416;-78
2022/06/02 03:11:54;;;;;;;1.87;0.80;;;12.10;91.30;;;;;;5001959;28;20457;-78
2022/06/02 03:14:58;;;;;;;2.43;1.10;;;12.00;91.30;;;;;;5002621;28;20460;-78
2022/06/02 03:17:57;;;;;;;5.97;0.90;;;11.90;91.60;;;;;;5000741;28;20504;-78
2022/06/02 03:20:55;;;;;;;1.90;0.90;;;12.00;91.60;;;;;;4998801;28;20410;-78
2022/06/02 03:23:53;;;;;;;1.60;0.70;;;11.90;91.50;;;;;;5009475;28;20505;-78
2022/06/02 03:26:18;;;;;;;2.20;1.17;;;11.90;91.60;;;;;;5007688;28;20525;-78
2022/06/02 03:29:04;;;;;;;1.80;0.70;;;11.90;91.60;;;;;;5002003;28;20973;-78
2022/06/02 03:31:47;;;;;;;3.50;1.07;;;11.90;91.60;;;;;;5009638;28;20222;-78
2022/06/02 03:34:35;;;;;;;1.83;0.97;;;12.00;91.40;;;;;;5010565;28;20917;-78
2022/06/02 03:37:39;;;;;;;1.30;0.57;;;12.00;91.30;;;;;;5012429;28;20405;-77
2022/06/02 03:40:26;;;;;;;2.13;0.90;;;12.00;91.50;;;;;;5006838;28;21209;-78
2022/06/02 03:43:01;;;;;;;6.20;0.60;;;12.00;91.70;;;;;;4994800;28;20430;-77
2022/06/02 03:45:39;;;;;;;6.33;1.20;;;12.00;91.50;;;;;;5008784;28;20426;-78
2022/06/02 03:49:02;;;;;;;1.50;0.80;;;12.00;91.60;;;;;;4994893;28;20918;-78
2022/06/02 03:51:31;;;;;;;2.13;1.10;;;12.00;91.40;;;;;;4966668;28;20474;-78
2022/06/02 03:54:08;;;;;;;2.00;0.90;;;12.00;91.30;;;;;;5006370;28;20439;-78
2022/06/02 03:57:15;;;;;;;2.70;1.03;;;12.10;91.40;;;;;;5006179;28;20418;-78
2022/06/02 04:00:11;;;;;;;2.53;1.23;;;12.10;91.00;;;;;;4944936;29;20519;-78
2022/06/02 04:03:00;;;;;;;2.03;0.90;;;12.10;91.30;;;;;;4945581;29;20438;-78
2022/06/02 04:05:54;;;;;;;2.70;1.00;;;12.20;91.40;;;;;;5002135;28;20445;-77
2022/06/02 04:08:26;;;;;;;2.47;0.80;;;12.20;91.40;;;;;;4996366;28;21066;-78
2022/06/02 04:11:06;;;;;;;1.87;0.77;;;12.20;91.40;;;;;;5008318;28;20438;-78
2022/06/02 04:13:41;;;;;;;2.70;1.40;;;12.20;91.10;;;;;;5013803;28;20432;-78
2022/06/02 04:16:18;;;;;;;4.13;1.20;;;12.20;91.20;;;;;;5010279;28;20886;-77
2022/06/02 04:18:59;;;;;;;2.00;1.00;;;12.20;90.90;;;;;;5006573;28;20436;-78
2022/06/02 04:21:36;;;;;;;1.50;0.80;;;12.20;90.60;;;;;;5009918;28;20425;-78
2022/06/02 04:24:25;;;;;;;2.40;1.53;;;12.20;90.50;;;;;;5012073;28;20475;-78
2022/06/02 04:27:13;;;;;;;8.40;1.50;;;12.20;90.80;;;;;;5008085;28;20426;-78
2022/06/02 04:30:00;;;;;;;3.60;0.90;;;12.30;91.10;;;;;;4999420;28;20415;-78
2022/06/02 04:33:03;;;;;;;2.90;1.40;;;12.30;90.70;;;;;;5011263;28;20461;-78
2022/06/02 04:35:59;;;;;;;2.00;0.90;;;12.40;91.10;;;;;;5006827;28;20508;-78
2022/06/02 04:38:34;;;;;;;2.10;0.97;;;12.50;91.00;;;;;;5003372;28;20415;-78
2022/06/02 04:40:59;;;;;;;1.73;0.90;;;12.50;90.70;;;;;;5001484;28;20429;-78
2022/06/02 04:43:49;;;;;;;1.60;0.87;;;12.60;90.30;;;;;;5004801;28;20426;-78
2022/06/02 04:46:40;;;;;;;3.33;1.40;;;12.70;90.10;;;;;;5008737;28;20664;-78
2022/06/02 04:49:17;;;;;;;3.20;1.57;;;12.80;89.20;;;;;;5007426;28;20415;-78
2022/06/02 04:51:50;;;;;;;2.90;0.87;;;12.90;89.50;;;;;;4995800;28;20809;-78
2022/06/02 04:54:38;;;;;;;3.60;1.47;;;12.90;89.30;;;;;;5005566;28;20515;-78
2022/06/02 04:57:12;;;;;;;1.63;0.73;;;12.90;89.70;;;;;;5010130;28;20430;-78
2022/06/02 05:00:09;;;;;;;2.90;1.23;;;13.00;88.90;;;;;;5006710;28;20922;-78
2022/06/02 05:02:52;;;;;;;1.50;0.63;;;13.00;89.40;;;;;;5006545;28;20414;-78
2022/06/02 05:05:55;;;;;;;3.60;0.87;;;13.10;88.60;;;;;;5013291;28;20430;-76
2022/06/02 05:08:47;;;;;;;1.77;0.87;;;13.10;88.30;;;;;;5007507;28;20528;-76
2022/06/02 05:11:18;;;;;;;2.37;1.10;;;13.20;88.20;;;;;;5012078;28;20883;-76
2022/06/02 05:14:21;;;;;;;2.00;1.03;;;13.20;87.90;;;;;;5017396;28;20430;-76
2022/06/02 05:17:08;;;;;;;11.67;1.00;;;13.20;87.10;;;;;;5013217;28;20394;-76
2022/06/02 05:19:45;;;;;;;3.97;1.23;;;13.30;88.10;;;;;;4999837;28;20415;-76
2022/06/02 05:22:11;;;;;;;6.80;2.57;;;13.20;88.40;;;;;;4997494;28;20896;-76
2022/06/02 05:24:36;;;;;;;3.43;1.40;;;13.30;87.40;;;;;;5011801;28;20418;-76
2022/06/02 05:27:26;;;;;;;1.73;0.70;;;13.20;88.30;;;;;;5018109;28;20262;-76
2022/06/02 05:29:54;;;;;;;3.83;1.23;;;13.30;89.30;;;;;;5016151;28;20187;-76
2022/06/02 05:32:58;;;;;;;5.80;1.53;;;13.40;88.90;;;;;;5015713;28;20473;-76
2022/06/02 05:36:05;;;;;;;3.00;1.10;;;13.50;87.40;;;;;;5016107;28;21265;-76
2022/06/02 05:38:40;;;;;;;2.57;1.27;;;13.60;87.20;;;;;;4974530;28;20457;-76
2022/06/02 05:41:24;;;;;;;6.83;0.97;;;13.80;87.00;;;;;;5003746;28;20423;-76
2022/06/02 05:44:11;;;;;;;2.70;1.03;;;14.00;86.20;;;;;;4997925;28;20516;-76
2022/06/02 05:46:39;;;;;;;1.80;0.90;;;14.10;86.20;;;;;;5012902;28;20477;-76
2022/06/02 05:49:33;;;;;;;2.70;1.07;;;14.20;86.50;;;;;;4993195;28;20439;-76
2022/06/02 05:52:10;;;;;;;4.17;1.30;;;14.30;86.20;;;;;;5010456;28;20560;-75
2022/06/02 05:55:12;;;;;;;3.77;0.97;;;14.30;85.50;;;;;;5000973;28;20434;-76
2022/06/02 05:57:45;;;;;;;2.43;0.80;;;14.40;84.80;;;;;;4993917;28;20454;-76
2022/06/02 06:00:25;;;;;;;3.80;1.20;;;14.40;84.60;;;;;;4994249;28;20883;-76
2022/06/02 06:03:18;;;;;;;3.60;1.20;;;14.40;84.60;;;;;;4993848;28;20445;-75
2022/06/02 06:05:54;;;;;;;1.87;1.13;;;14.50;85.20;;;;;;5004092;28;20905;-76
2022/06/02 06:08:35;;;;;;;7.90;1.40;;;14.50;84.00;;;;;;4994938;28;20406;-76
2022/06/02 06:11:07;;;;;;;4.80;1.23;;;14.50;83.80;;;;;;4993509;28;20508;-76
2022/06/02 06:13:53;;;;;;;3.40;0.90;;;14.50;82.90;;;;;;5012361;28;20398;-76
2022/06/02 06:16:32;;;;;;;2.53;1.00;;;14.50;84.10;;;;;;5013026;28;21172;-76
2022/06/02 06:19:16;;;;;;;15.13;1.43;;;14.50;84.00;;;;;;5012889;28;20406;-76
2022/06/02 06:22:15;;;;;;;4.40;1.53;;;14.50;83.70;;;;;;4993360;28;20403;-75
2022/06/02 06:25:02;;;;;;;2.40;1.23;;;14.60;81.90;;;;;;5012238;28;20753;-76
2022/06/02 06:27:59;;;;;;;2.67;1.10;;;14.60;83.00;;;;;;5012752;28;20823;-75
2022/06/02 06:30:51;;;;;;;7.63;1.23;;;14.60;83.40;;;;;;5000769;28;20419;-76
2022/06/02 06:33:20;;;;;;;1.60;0.80;;;14.60;83.20;;;;;;5032635;28;20397;-76
2022/06/02 06:36:06;;;;;;;3.10;1.27;;;14.70;81.90;;;;;;5016911;28;20419;-75
2022/06/02 06:38:37;;;;;;;3.67;0.93;;;14.70;81.90;;;;;;5012187;28;20394;-76
2022/06/02 06:41:06;;;;;;;1.70;0.90;;;14.80;82.40;;;;;;5020321;28;20417;-76
2022/06/02 06:44:03;;;;;;;1.97;1.03;;;14.90;82.70;;;;;;5030641;28;20409;-76
2022/06/02 06:46:56;;;;;;;2.33;0.87;;;14.90;81.60;;;;;;5013048;28;20419;-76
2022/06/02 06:49:34;;;;;;;2.73;1.43;;;15.00;81.30;;;;;;5008783;28;20441;-75
2022/06/02 06:52:18;;;;;;;6.27;1.20;;;15.10;82.40;;;;;;5016547;28;20445;-76
2022/06/02 06:54:48;;;;;;;2.03;0.90;;;15.20;80.20;;;;;;5016852;28;20402;-75
2022/06/02 06:57:31;;;;;;;3.10;0.90;;;15.40;78.90;;;;;;5036202;28;20404;-75
2022/06/02 07:00:05;;;;;;;2.53;0.90;;;15.40;79.30;;;;;;5020444;28;20471;-76
2022/06/02 07:02:34;;;;;;;3.47;1.10;;;15.50;79.60;;;;;;5016147;28;20443;-76
2022/06/02 07:05:20;;;;;;;3.50;0.97;;;15.60;80.10;;;;;;5015897;28;20452;-76
2022/06/02 07:08:13;;;;;;;1.80;0.80;;;15.90;78.70;;;;;;5029844;28;20401;-75
2022/06/02 07:10:45;;;;;;;1.80;0.70;;;16.00;77.20;;;;;;5010096;28;20452;-76
2022/06/02 07:13:44;;;;;;;5.23;1.10;;;16.20;77.00;;;;;;5016187;28;20446;-75
2022/06/02 07:16:42;;;;;;;2.27;0.80;;;16.30;77.40;;;;;;5016528;28;20409;-76
2022/06/02 07:19:20;;;;;;;4.17;1.10;;;16.50;76.10;;;;;;5016349;28;20406;-76
2022/06/02 07:21:56;;;;;;;1.70;0.80;;;16.80;77.00;;;;;;5015559;28;20444;-76
2022/06/02 07:24:43;;;;;;;4.17;1.10;;;17.40;73.90;;;;;;5016015;28;20413;-76
2022/06/02 07:28:00;;;;;;;2.00;1.17;;;17.60;73.10;;;;;;5015666;28;20398;-76
2022/06/02 07:30:44;;;;;;;3.10;1.07;;;17.70;74.40;;;;;;4979314;28;20438;-76
2022/06/02 07:33:37;;;;;;;1.63;0.80;;;17.90;73.00;;;;;;5014269;28;20409;-76
2022/06/02 07:36:18;;;;;;;1.60;0.80;;;18.60;71.60;;;;;;5016189;28;20456;-76
2022/06/02 07:39:18;;;;;;;5.70;1.03;;;19.50;70.50;;;;;;5015807;28;20410;-76
2022/06/02 07:41:52;;;;;;;3.70;1.10;;;20.70;66.80;;;;;;5015603;28;20412;-77
2022/06/02 07:44:59;;;;;;;3.50;1.37;;;20.50;67.30;;;;;;5015942;28;20455;-76
2022/06/02 07:48:00;;;;;;;4.17;1.60;;;21.10;67.00;;;;;;5015363;28;21087;-77
2022/06/02 07:50:39;;;;;;;3.63;1.20;;;21.80;62.90;;;;;;4996278;28;20418;-77
2022/06/02 07:53:17;;;;;;;2.00;1.00;;;23.10;59.70;;;;;;5015046;28;20453;-76
2022/06/02 07:55:54;;;;;;;1.90;0.90;;;22.20;61.50;;;;;;5022408;28;20289;-76
2022/06/02 07:58:51;;;;;;;2.10;0.93;;;23.20;59.40;;;;;;5035229;28;20165;-76
2022/06/02 08:01:16;;;;;;;2.37;1.07;;;24.40;56.40;;;;;;5016622;28;20537;-76
2022/06/02 08:04:14;;;;;;;3.20;0.90;;;23.70;58.10;;;;;;5003063;28;20286;-77
2022/06/02 08:07:01;;;;;;;2.90;1.07;;;23.00;62.10;;;;;;4991218;28;20194;-76
2022/06/02 08:09:48;;;;;;;2.42;0.90;;;23.50;57.70;;;;;;5014671;28;20545;-75
2022/06/02 08:12:23;;;;;;;2.08;1.08;;;23.60;58.20;;;;;;5013484;28;20209;-75
2022/06/02 08:15:13;;;;;;;1.90;0.80;;;23.80;59.10;;;;;;5017990;28;20250;-75
2022/06/02 08:17:48;;;;;;;2.08;1.20;;;24.40;56.20;;;;;;5007452;28;20658;-75
2022/06/02 08:20:28;;;;;;;2.28;1.00;;;24.30;56.30;;;;;;5013592;28;20285;-75
2022/06/02 08:22:57;;;;;;;1.80;0.80;;;23.90;57.70;;;;;;5014706;28;20190;-75
2022/06/02 08:25:26;;;;;;;1.57;0.60;;;23.60;58.10;;;;;;5013561;28;20183;-75
2022/06/02 08:28:03;;;;;;;2.47;1.17;;;24.00;57.30;;;;;;5013205;28;20186;-75
2022/06/02 08:30:29;;;;;;;2.25;0.80;;;24.20;57.10;;;;;;5022898;28;20163;-75
2022/06/02 08:33:13;;;;;;;1.60;0.83;;;24.10;56.60;;;;;;5013842;28;20210;-75
2022/06/02 08:35:57;;;;;;;2.90;1.20;;;23.80;58.00;;;;;;5013862;28;20171;-76
2022/06/02 08:38:33;;;;;;;3.57;1.10;;;23.60;58.80;;;;;;5025713;28;20175;-76
2022/06/02 08:41:29;;;;;;;2.40;1.17;;;23.40;59.40;;;;;;4993785;28;20248;-75
2022/06/02 08:44:44;;;;;;;2.95;1.00;;;23.40;58.80;;;;;;5011027;28;20193;-75
2022/06/02 08:47:47;;;;;;;2.00;0.90;;;23.70;58.60;;;;;;5029209;28;20822;-75
2022/06/02 08:50:31;;;;;;;2.03;1.00;;;23.60;58.30;;;;;;5017563;28;20201;-76
2022/06/02 08:53:21;;;;;;;1.75;0.82;;;23.20;58.60;;;;;;5032597;28;20221;-74
2022/06/02 08:56:31;;;;;;;1.75;0.80;;;23.40;59.00;;;;;;5002346;28;20189;-75
2022/06/02 08:59:25;;;;;;;2.72;0.95;;;23.70;58.80;;;;;;4997381;28;20194;-75
2022/06/02 09:02:22;;;;;;;3.65;1.65;;;24.40;58.10;;;;;;5023745;28;20542;-75
2022/06/02 09:05:09;;;;;;;12.73;1.20;;;23.90;59.00;;;;;;5009454;28;20301;-75
2022/06/02 09:07:40;;;;;;;4.35;1.38;;;24.70;56.90;;;;;;5007265;28;20182;-75
2022/06/02 09:10:28;;;;;;;1.80;0.80;;;24.90;56.00;;;;;;5011957;28;20276;-79
2022/06/02 09:13:12;;;;;;;2.72;1.00;;;24.00;59.10;;;;;;5001720;28;20221;-79
2022/06/02 09:16:14;;;;;;;4.97;1.30;;;24.20;57.80;;;;;;5001626;28;20265;-79
2022/06/02 09:19:05;;;;;;;3.05;0.95;;;24.60;58.00;;;;;;5003230;28;20190;-78
2022/06/02 09:22:09;;;;;;;1.80;0.90;;;25.30;55.40;;;;;;5006427;28;20190;-75
2022/06/02 09:24:58;;;;;;;2.15;1.10;;;24.40;57.70;;;;;;5005308;28;20181;-74
2022/06/02 09:28:01;;;;;;;2.03;0.77;;;25.00;55.30;;;;;;5001032;28;20170;-74
2022/06/02 09:30:43;;;;;;;4.97;1.27;;;24.90;55.10;;;;;;5003489;28;20179;-75
2022/06/02 09:33:33;;;;;;;2.50;0.80;;;24.80;54.90;;;;;;5003047;28;20206;-75
2022/06/02 09:36:36;;;;;;;2.80;1.13;;;24.60;55.50;;;;;;5005738;28;20179;-75
2022/06/02 09:39:32;;;;;;;2.25;1.02;;;24.20;56.20;;;;;;4995548;28;20209;-75
2022/06/02 09:42:30;;;;;;;1.70;0.70;;;24.10;58.70;;;;;;5004132;28;20293;-75
2022/06/02 09:45:17;;;;;;;2.42;0.90;;;23.70;57.50;;;;;;5011353;28;20178;-75
2022/06/02 09:48:04;;;;;;;2.22;0.82;;;23.90;56.70;;;;;;5006154;28;20194;-75
2022/06/02 09:50:32;;;;;;;1.60;0.68;;;23.90;57.10;;;;;;5003306;28;20163;-75
2022/06/02 09:53:11;;;;;;;8.73;1.10;;;24.60;56.00;;;;;;5003274;28;20300;-75
2022/06/02 09:55:56;;;;;;;1.92;0.82;;;24.40;56.40;;;;;;5000036;28;20217;-75
2022/06/02 09:58:41;;;;;;;2.25;0.80;;;24.60;56.70;;;;;;5010535;28;20213;-75
2022/06/02 10:01:22;;;;;;;4.03;1.20;;;24.80;55.60;;;;;;5004297;28;20194;-75
2022/06/02 10:04:29;;;;;;;6.75;0.82;;;24.50;56.10;;;;;;4992217;28;20221;-75
2022/06/02 10:07:28;;;;;;;2.63;1.25;;;24.20;56.80;;;;;;5007363;28;20205;-75
2022/06/02 10:09:54;;;;;;;2.10;1.08;;;23.90;57.60;;;;;;5011679;28;20183;-73
2022/06/02 10:12:58;;;;;;;4.53;0.95;;;23.80;57.50;;;;;;5011778;28;20249;-73
2022/06/02 10:15:42;;;;;;;2.40;0.90;;;23.40;58.80;;;;;;5009768;28;20178;-75
2022/06/02 10:18:34;;;;;;;2.80;1.10;;;24.00;56.90;;;;;;5012236;28;20206;-79
2022/06/02 10:21:19;;;;;;;4.07;1.10;;;23.90;56.60;;;;;;5009982;28;20178;-79
2022/06/02 10:24:03;;;;;;;4.17;0.80;;;23.10;59.00;;;;;;5009023;28;20414;-78
2022/06/02 10:26:50;;;;;;;2.07;0.80;;;23.20;58.80;;;;;;5008417;28;20417;-78
2022/06/02 10:29:37;;;;;;;2.00;0.60;;;22.70;59.90;;;;;;5000291;28;20863;-78
2022/06/02 10:32:24;;;;;;;1.93;0.80;;;22.40;61.70;;;;;;5006389;28;20473;-78
2022/06/02 10:34:55;;;;;;;2.50;0.87;;;22.70;59.30;;;;;;5005878;28;20906;-78
2022/06/02 10:37:41;;;;;;;3.30;0.90;;;22.80;58.90;;;;;;4997820;28;20422;-78
2022/06/02 10:40:17;;;;;;;1.80;0.70;;;22.70;58.40;;;;;;5007314;28;20410;-78
2022/06/02 10:43:00;;;;;;;4.23;1.30;;;22.60;58.80;;;;;;5008922;28;20937;-77
2022/06/02 10:45:41;;;;;;;1.80;0.83;;;22.50;59.60;;;;;;5009287;28;20413;-77
2022/06/02 10:48:06;;;;;;;2.80;1.10;;;22.40;60.20;;;;;;4994247;28;20898;-78
2022/06/02 10:51:00;;;;;;;4.77;0.67;;;22.50;60.10;;;;;;5003247;28;20433;-78
2022/06/02 10:53:34;;;;;;;2.60;0.90;;;22.70;60.70;;;;;;5000018;28;20194;-78
2022/06/02 10:56:40;;;;;;;2.77;1.00;;;22.10;61.10;;;;;;5003265;28;20508;-77
2022/06/02 10:59:25;;;;;;;3.83;1.13;;;22.40;60.00;;;;;;4994568;28;20446;-78
2022/06/02 11:02:09;;;;;;;2.27;1.00;;;22.60;58.80;;;;;;4999355;28;20954;-78
2022/06/02 11:05:21;;;;;;;1.93;0.77;;;22.50;61.60;;;;;;5008661;28;20441;-78
2022/06/02 11:07:59;;;;;;;3.47;1.23;;;22.80;60.90;;;;;;5008046;28;20456;-78
2022/06/02 11:10:29;;;;;;;4.27;0.90;;;22.90;60.90;;;;;;5002989;28;20756;-78
2022/06/02 11:13:42;;;;;;;4.07;0.60;;;23.00;61.20;;;;;;4999694;28;20472;-78
2022/06/02 11:16:39;;;;;;;10.53;1.30;;;23.10;59.90;;;;;;4981811;28;20437;-78
2022/06/02 11:19:26;;;;;;;2.27;0.90;;;23.30;58.50;;;;;;5008887;28;20426;-80
2022/06/02 11:22:15;;;;;;;3.67;1.03;;;23.10;59.60;;;;;;5008468;28;20426;-78
2022/06/02 11:25:19;;;;;;;2.90;1.00;;;22.80;60.20;;;;;;5000567;28;20469;-78
2022/06/02 11:28:27;;;;;;;5.10;1.13;;;23.20;58.70;;;;;;4998539;28;20421;-79
2022/06/02 11:31:26;;;;;;;7.10;1.33;;;23.00;60.20;;;;;;5001628;28;20835;-79
2022/06/02 11:34:22;;;;;;;3.63;1.30;;;23.20;63.10;;;;;;5004946;28;20437;-79
2022/06/02 11:37:15;;;;;;;1.80;0.83;;;23.10;61.90;;;;;;5005122;28;20428;-79
2022/06/02 11:39:49;;;;;;;2.90;1.17;;;22.70;62.60;;;;;;4997072;28;20469;-79
2022/06/02 11:42:24;;;;;;;9.47;1.20;;;22.80;60.30;;;;;;5002586;28;20432;-78
2022/06/02 11:45:13;;;;;;;2.80;1.10;;;23.10;61.20;;;;;;5001851;28;20456;-78
2022/06/02 11:48:10;;;;;;;1.63;0.87;;;23.40;63.50;;;;;;5011166;28;20430;-76
2022/06/02 11:51:19;;;;;;;22.50;1.10;;;23.50;60.80;;;;;;4997692;28;20450;-76
2022/06/02 11:54:02;;;;;;;1.80;0.87;;;23.50;61.10;;;;;;5006947;28;20448;-77
2022/06/02 11:56:49;;;;;;;2.67;1.10;;;23.40;60.50;;;;;;4999015;28;20453;-77
2022/06/02 11:59:42;;;;;;;2.50;0.97;;;23.40;61.30;;;;;;5002855;28;20429;-77
2022/06/02 12:02:32;;;;;;;1.40;0.60;;;23.60;62.30;;;;;;5005078;28;20417;-77
2022/06/02 12:05:04;;;;;;;3.17;1.20;;;23.50;60.30;;;;;;5014255;28;20454;-77
2022/06/02 12:07:57;;;;;;;1.40;0.60;;;23.70;59.30;;;;;;5014543;28;20910;-77
2022/06/02 12:10:56;;;;;;;1.80;0.87;;;23.30;61.60;;;;;;5006672;28;20961;-77
2022/06/02 12:13:22;;;;;;;2.00;1.00;;;23.00;63.80;;;;;;5004558;28;20926;-77
2022/06/02 12:15:57;;;;;;;6.83;1.27;;;23.20;63.90;;;;;;5000180;28;20422;-77
2022/06/02 12:18:46;;;;;;;2.20;1.10;;;23.20;62.40;;;;;;5005509;28;20229;-77
2022/06/02 12:21:32;;;;;;;1.97;1.03;;;23.30;61.00;;;;;;4995403;28;20911;-76
2022/06/02 12:24:35;;;;;;;2.27;1.20;;;23.70;59.10;;;;;;5009935;28;20519;-77
2022/06/02 12:27:15;;;;;;;3.83;1.03;;;23.70;58.70;;;;;;5014887;28;20401;-77
2022/06/02 12:30:04;;;;;;;2.83;0.80;;;23.70;61.90;;;;;;5003092;28;20417;-77
2022/06/02 12:32:34;;;;;;;1.60;0.70;;;23.20;63.50;;;;;;5009233;28;20453;-77
2022/06/02 12:35:19;;;;;;;11.00;1.20;;;23.20;62.80;;;;;;5014184;28;20456;-77
2022/06/02 12:38:00;;;;;;;2.23;0.87;;;23.40;62.90;;;;;;5006719;28;20414;-77
2022/06/02 12:41:10;;;;;;;2.33;1.30;;;23.50;61.10;;;;;;4995380;28;20534;-77
2022/06/02 12:43:55;;;;;;;2.83;1.03;;;23.90;58.80;;;;;;4985526;28;20434;-77
2022/06/02 12:46:41;;;;;;;1.87;0.93;;;23.80;59.80;;;;;;4995152;28;20401;-77
2022/06/02 12:49:38;;;;;;;3.83;0.77;;;23.80;60.00;;;;;;4995188;28;20407;-76
2022/06/02 12:52:28;;;;;;;1.60;0.70;;;24.00;59.30;;;;;;5013546;28;20484;-76
2022/06/02 12:55:19;;;;;;;2.50;1.07;;;24.10;62.00;;;;;;4998917;28;20473;-76
2022/06/02 12:58:11;;;;;;;6.50;1.00;;;24.00;61.50;;;;;;4994583;28;20386;-77
2022/06/02 13:01:07;;;;;;;1.70;0.80;;;24.00;59.60;;;;;;4994987;28;20436;-77
2022/06/02 13:03:35;;;;;;;1.90;0.90;;;24.20;58.40;;;;;;5003805;28;20422;-77
2022/06/02 13:06:28;;;;;;;2.03;0.77;;;23.90;59.50;;;;;;5000414;28;20423;-77
2022/06/02 13:09:00;;;;;;;2.10;0.93;;;24.00;59.70;;;;;;5002387;28;20442;-76
2022/06/02 13:12:02;;;;;;;3.30;1.63;;;23.20;63.10;;;;;;4994269;28;20450;-76
2022/06/02 13:14:46;;;;;;;4.97;0.90;;;23.20;60.90;;;;;;5009415;28;20807;-76
2022/06/02 13:17:30;;;;;;;2.03;1.00;;;23.40;62.80;;;;;;5007423;28;20413;-77
2022/06/02 13:20:46;;;;;;;2.73;1.30;;;23.40;61.40;;;;;;5013728;28;20444;-77
2022/06/02 13:23:12;;;;;;;2.20;1.00;;;23.50;61.80;;;;;;4986985;28;20473;-77
2022/06/02 13:26:00;;;;;;;2.53;1.00;;;23.40;61.70;;;;;;5013902;28;20779;-77
2022/06/02 13:28:32;;;;;;;4.07;1.10;;;23.40;62.20;;;;;;5007114;28;20666;-77
2022/06/02 13:30:57;;;;;;;4.07;1.00;;;23.50;62.60;;;;;;5001497;28;20429;-77
2022/06/02 13:33:54;;;;;;;4.80;0.67;;;23.30;62.20;;;;;;5011784;28;20414;-77
2022/06/02 13:36:57;;;;;;;3.00;0.90;;;23.30;62.70;;;;;;5004773;28;20190;-77
2022/06/02 13:40:01;;;;;;;1.87;0.90;;;23.20;61.20;;;;;;5002298;28;20508;-78
2022/06/02 13:42:48;;;;;;;5.13;1.20;;;23.30;63.30;;;;;;5000052;28;20509;-78
2022/06/02 13:45:14;;;;;;;1.70;0.80;;;23.40;61.60;;;;;;4998557;28;20420;-78
2022/06/02 13:48:17;;;;;;;4.70;0.90;;;23.40;61.60;;;;;;4999963;28;20482;-78
2022/06/02 13:51:16;;;;;;;2.40;0.97;;;23.20;61.80;;;;;;4995909;28;20483;-79
2022/06/02 13:57:30;;;;;;;5.53;1.20;;;23.10;62.30;;;;;;5002364;28;20875;-79
2022/06/02 14:00:04;;;;;;;2.27;1.00;;;22.90;65.90;;;;;;5005250;28;20794;-78
2022/06/02 14:02:41;;;;;;;2.00;0.87;;;23.20;62.00;;;;;;4991688;28;20425;-77
2022/06/02 14:05:07;;;;;;;4.50;0.77;;;23.30;60.80;;;;;;5009561;28;20437;-77
2022/06/02 14:07:58;;;;;;;2.00;0.90;;;23.10;61.90;;;;;;5009406;28;20409;-79
2022/06/02 14:10:26;;;;;;;1.67;0.80;;;22.90;63.50;;;;;;4999806;28;20555;-77
2022/06/02 14:13:29;;;;;;;4.47;1.03;;;22.60;64.40;;;;;;5004098;28;20462;-78
2022/06/02 14:16:23;;;;;;;1.60;0.70;;;22.30;66.20;;;;;;5005276;28;20468;-78
2022/06/02 14:19:04;;;;;;;1.93;1.10;;;22.20;64.80;;;;;;5005371;28;20429;-78
2022/06/02 14:21:35;;;;;;;2.33;1.00;;;21.90;66.70;;;;;;5002901;28;20423;-78
2022/06/02 14:24:06;;;;;;;3.93;0.80;;;21.80;67.30;;;;;;5005543;28;20517;-78
2022/06/02 14:26:59;;;;;;;2.90;1.10;;;21.70;66.30;;;;;;5001672;28;20426;-78
2022/06/02 14:29:40;;;;;;;2.23;1.00;;;21.80;67.50;;;;;;5004173;28;20414;-78